sensor_id;sensor_type;location;lat;lon;timestamp;temperature;humidity
30069;DHT22;16894;49.456;10.644;2022-07-17T00:00:23;13.10;99.90
30069;DHT22;16894;49.456;10.644;2022-07-17T00:02:49;12.90;99.90
30069;DHT22;16894;49.456;10.644;2022-07-17T00:05:15;12.70;99.90
30069;DHT22;16894;49.456;10.644;2022-07-17T00:07:40;12.60;99.90
30069;DHT22;16894;49.456;10.644;2022-07-17T00:10:07;12.60;99.90
30069;DHT22;16894;49.456;10.644;2022-07-17T00:12:32;12.40;99.90
30069;DHT22;16894;49.456;10.644;2022-07-17T00:14:58;12.40;99.90
30069;DHT22;16894;49.456;10.644;2022-07-17T00:17:24;12.20;99.90
30069;DHT22;16894;49.456;10.644;2022-07-17T00:19:49;12.20;99.90
30069;DHT22;16894;49.456;10.644;2022-07-17T00:22:15;12.00;99.90
30069;DHT22;16894;49.456;10.644;2022-07-17T00:24:41;11.90;99.90
30069;DHT22;16894;49.456;10.644;2022-07-17T00:27:06;11.80;99.90
30069;DHT22;16894;49.456;10.644;2022-07-17T00:29:32;11.60;99.90
30069;DHT22;16894;49.456;10.644;2022-07-17T00:31:57;11.40;99.90
30069;DHT22;16894;49.456;10.644;2022-07-17T00:34:24;11.40;99.90
30069;DHT22;16894;49.456;10.644;2022-07-17T00:36:49;11.40;99.90
30069;DHT22;16894;49.456;10.644;2022-07-17T00:39:15;11.50;99.90
30069;DHT22;16894;49.456;10.644;2022-07-17T00:41:44;11.60;99.90
30069;DHT22;16894;49.456;10.644;2022-07-17T00:44:10;11.50;99.90
30069;DHT22;16894;49.456;10.644;2022-07-17T00:46:38;11.60;99.90
30069;DHT22;16894;49.456;10.644;2022-07-17T00:49:04;11.50;99.90
30069;DHT22;16894;49.456;10.644;2022-07-17T00:51:30;11.50;99.90
30069;DHT22;16894;49.456;10.644;2022-07-17T00:53:57;11.70;99.90
30069;DHT22;16894;49.456;10.644;2022-07-17T00:56:23;11.80;99.90
30069;DHT22;16894;49.456;10.644;2022-07-17T00:58:50;11.80;99.90
30069;DHT22;16894;49.456;10.644;2022-07-17T01:01:16;11.70;99.90
30069;DHT22;16894;49.456;10.644;2022-07-17T01:03:42;11.60;99.90
30069;DHT22;16894;49.456;10.644;2022-07-17T01:06:09;11.60;99.90
30069;DHT22;16894;49.456;10.644;2022-07-17T01:08:35;11.60;99.90
30069;DHT22;16894;49.456;10.644;2022-07-17T01:11:02;11.60;99.90
30069;DHT22;16894;49.456;10.644;2022-07-17T01:13:28;11.70;99.90
30069;DHT22;16894;49.456;10.644;2022-07-17T01:15:54;11.60;99.90
30069;DHT22;16894;49.456;10.644;2022-07-17T01:18:20;11.50;99.90
30069;DHT22;16894;49.456;10.644;2022-07-17T01:20:47;11.30;99.90
30069;DHT22;16894;49.456;10.644;2022-07-17T01:23:15;11.40;99.90
30069;DHT22;16894;49.456;10.644;2022-07-17T01:25:41;11.40;99.90
30069;DHT22;16894;49.456;10.644;2022-07-17T01:28:07;11.40;99.90
30069;DHT22;16894;49.456;10.644;2022-07-17T01:30:34;11.40;99.90
30069;DHT22;16894;49.456;10.644;2022-07-17T01:33:00;11.30;99.90
30069;DHT22;16894;49.456;10.644;2022-07-17T01:35:26;11.20;99.90
30069;DHT22;16894;49.456;10.644;2022-07-17T01:37:51;11.00;99.90
30069;DHT22;16894;49.456;10.644;2022-07-17T01:40:17;10.90;99.90
30069;DHT22;16894;49.456;10.644;2022-07-17T01:42:46;10.80;99.90
30069;DHT22;16894;49.456;10.644;2022-07-17T01:45:13;10.70;99.90
30069;DHT22;16894;49.456;10.644;2022-07-17T01:47:39;10.70;99.90
30069;DHT22;16894;49.456;10.644;2022-07-17T01:50:06;10.80;99.90
30069;DHT22;16894;49.456;10.644;2022-07-17T01:52:34;10.80;99.90
30069;DHT22;16894;49.456;10.644;2022-07-17T01:54:59;10.90;99.90
30069;DHT22;16894;49.456;10.644;2022-07-17T01:57:25;10.90;99.90
30069;DHT22;16894;49.456;10.644;2022-07-17T01:59:50;10.80;99.90
30069;DHT22;16894;49.456;10.644;2022-07-17T02:02:16;10.80;99.90
30069;DHT22;16894;49.456;10.644;2022-07-17T02:04:42;10.80;99.90
30069;DHT22;16894;49.456;10.644;2022-07-17T02:07:08;10.60;99.90
30069;DHT22;16894;49.456;10.644;2022-07-17T02:09:34;10.70;99.90
30069;DHT22;16894;49.456;10.644;2022-07-17T02:12:00;10.60;99.90
30069;DHT22;16894;49.456;10.644;2022-07-17T02:14:26;10.70;99.90
30069;DHT22;16894;49.456;10.644;2022-07-17T02:16:52;10.60;99.90
30069;DHT22;16894;49.456;10.644;2022-07-17T02:19:18;10.50;99.90
30069;DHT22;16894;49.456;10.644;2022-07-17T02:21:43;10.40;99.90
30069;DHT22;16894;49.456;10.644;2022-07-17T02:24:09;10.30;99.90
30069;DHT22;16894;49.456;10.644;2022-07-17T02:26:35;10.30;99.90
30069;DHT22;16894;49.456;10.644;2022-07-17T02:29:00;10.20;99.90
30069;DHT22;16894;49.456;10.644;2022-07-17T02:31:26;10.20;99.90
30069;DHT22;16894;49.456;10.644;2022-07-17T02:33:52;10.20;99.90
30069;DHT22;16894;49.456;10.644;2022-07-17T02:36:17;10.00;99.90
30069;DHT22;16894;49.456;10.644;2022-07-17T02:38:43;9.90;99.90
30069;DHT22;16894;49.456;10.644;2022-07-17T02:41:08;9.90;99.90
30069;DHT22;16894;49.456;10.644;2022-07-17T02:43:34;10.00;99.90
30069;DHT22;16894;49.456;10.644;2022-07-17T02:46:01;9.90;99.90
30069;DHT22;16894;49.456;10.644;2022-07-17T02:48:27;9.80;99.90
30069;DHT22;16894;49.456;10.644;2022-07-17T02:50:53;9.80;99.90
30069;DHT22;16894;49.456;10.644;2022-07-17T02:53:18;9.90;99.90
30069;DHT22;16894;49.456;10.644;2022-07-17T02:55:44;9.80;99.90
30069;DHT22;16894;49.456;10.644;2022-07-17T02:58:10;9.80;99.90
30069;DHT22;16894;49.456;10.644;2022-07-17T03:00:36;9.80;99.90
30069;DHT22;16894;49.456;10.644;2022-07-17T03:03:01;9.70;99.90
30069;DHT22;16894;49.456;10.644;2022-07-17T03:05:27;9.70;99.90
30069;DHT22;16894;49.456;10.644;2022-07-17T03:07:53;9.70;99.90
30069;DHT22;16894;49.456;10.644;2022-07-17T03:10:18;9.70;99.90
30069;DHT22;16894;49.456;10.644;2022-07-17T03:12:44;9.80;99.90
30069;DHT22;16894;49.456;10.644;2022-07-17T03:15:10;9.90;99.90
30069;DHT22;16894;49.456;10.644;2022-07-17T03:17:38;9.90;99.90
30069;DHT22;16894;49.456;10.644;2022-07-17T03:20:04;9.90;99.90
30069;DHT22;16894;49.456;10.644;2022-07-17T03:22:48;9.80;99.90
30069;DHT22;16894;49.456;10.644;2022-07-17T03:25:13;9.60;99.90
30069;DHT22;16894;49.456;10.644;2022-07-17T03:27:39;9.50;99.90
30069;DHT22;16894;49.456;10.644;2022-07-17T03:30:06;9.60;99.90
30069;DHT22;16894;49.456;10.644;2022-07-17T03:32:32;9.40;99.90
30069;DHT22;16894;49.456;10.644;2022-07-17T03:34:58;9.40;99.90
30069;DHT22;16894;49.456;10.644;2022-07-17T03:37:23;9.30;99.90
30069;DHT22;16894;49.456;10.644;2022-07-17T03:39:49;9.40;99.90
30069;DHT22;16894;49.456;10.644;2022-07-17T03:42:14;9.40;99.90
30069;DHT22;16894;49.456;10.644;2022-07-17T03:44:40;9.40;99.90
30069;DHT22;16894;49.456;10.644;2022-07-17T03:47:06;9.40;99.90
30069;DHT22;16894;49.456;10.644;2022-07-17T03:49:31;9.40;99.90
30069;DHT22;16894;49.456;10.644;2022-07-17T03:51:57;9.40;99.90
30069;DHT22;16894;49.456;10.644;2022-07-17T03:54:22;9.40;99.90
30069;DHT22;16894;49.456;10.644;2022-07-17T03:56:48;9.50;99.90
30069;DHT22;16894;49.456;10.644;2022-07-17T03:59:13;9.50;99.90
30069;DHT22;16894;49.456;10.644;2022-07-17T04:01:39;9.40;99.90
30069;DHT22;16894;49.456;10.644;2022-07-17T04:04:05;9.40;99.90
30069;DHT22;16894;49.456;10.644;2022-07-17T04:06:30;9.40;99.90
30069;DHT22;16894;49.456;10.644;2022-07-17T04:08:56;9.30;99.90
30069;DHT22;16894;49.456;10.644;2022-07-17T04:11:22;9.20;99.90
30069;DHT22;16894;49.456;10.644;2022-07-17T04:13:48;9.30;99.90
30069;DHT22;16894;49.456;10.644;2022-07-17T04:16:14;9.20;99.90
30069;DHT22;16894;49.456;10.644;2022-07-17T04:18:40;9.20;99.90
30069;DHT22;16894;49.456;10.644;2022-07-17T04:21:07;9.20;99.90
30069;DHT22;16894;49.456;10.644;2022-07-17T04:23:34;9.20;99.90
30069;DHT22;16894;49.456;10.644;2022-07-17T04:26:00;9.20;99.90
30069;DHT22;16894;49.456;10.644;2022-07-17T04:28:25;9.30;99.90
30069;DHT22;16894;49.456;10.644;2022-07-17T04:30:51;9.30;99.90
30069;DHT22;16894;49.456;10.644;2022-07-17T04:33:17;9.30;99.90
30069;DHT22;16894;49.456;10.644;2022-07-17T04:35:43;9.30;99.90
30069;DHT22;16894;49.456;10.644;2022-07-17T04:38:09;9.30;99.90
30069;DHT22;16894;49.456;10.644;2022-07-17T04:40:37;9.10;99.90
30069;DHT22;16894;49.456;10.644;2022-07-17T04:43:03;9.20;99.90
30069;DHT22;16894;49.456;10.644;2022-07-17T04:45:29;9.30;99.90
30069;DHT22;16894;49.456;10.644;2022-07-17T04:47:55;9.30;99.90
30069;DHT22;16894;49.456;10.644;2022-07-17T04:50:21;9.30;99.90
30069;DHT22;16894;49.456;10.644;2022-07-17T04:52:46;9.30;99.90
30069;DHT22;16894;49.456;10.644;2022-07-17T04:55:12;9.40;99.90
30069;DHT22;16894;49.456;10.644;2022-07-17T04:57:38;9.50;99.90
30069;DHT22;16894;49.456;10.644;2022-07-17T05:00:06;9.60;99.90
30069;DHT22;16894;49.456;10.644;2022-07-17T05:02:32;9.80;99.90
30069;DHT22;16894;49.456;10.644;2022-07-17T05:04:58;9.90;99.90
30069;DHT22;16894;49.456;10.644;2022-07-17T05:07:23;10.00;99.90
30069;DHT22;16894;49.456;10.644;2022-07-17T05:09:49;10.00;99.90
30069;DHT22;16894;49.456;10.644;2022-07-17T05:12:15;10.10;99.90
30069;DHT22;16894;49.456;10.644;2022-07-17T05:14:40;10.20;99.90
30069;DHT22;16894;49.456;10.644;2022-07-17T05:17:06;10.30;99.90
30069;DHT22;16894;49.456;10.644;2022-07-17T05:19:32;10.30;99.90
30069;DHT22;16894;49.456;10.644;2022-07-17T05:21:58;10.40;99.90
30069;DHT22;16894;49.456;10.644;2022-07-17T05:24:23;10.50;99.90
30069;DHT22;16894;49.456;10.644;2022-07-17T05:26:49;10.60;99.90
30069;DHT22;16894;49.456;10.644;2022-07-17T05:29:14;10.70;99.90
30069;DHT22;16894;49.456;10.644;2022-07-17T05:31:40;10.80;99.90
30069;DHT22;16894;49.456;10.644;2022-07-17T05:34:05;10.80;99.90
30069;DHT22;16894;49.456;10.644;2022-07-17T05:36:31;10.90;99.90
30069;DHT22;16894;49.456;10.644;2022-07-17T05:38:57;10.90;99.90
30069;DHT22;16894;49.456;10.644;2022-07-17T05:41:22;11.10;99.90
30069;DHT22;16894;49.456;10.644;2022-07-17T05:43:48;11.20;99.90
30069;DHT22;16894;49.456;10.644;2022-07-17T05:46:14;11.30;99.90
30069;DHT22;16894;49.456;10.644;2022-07-17T05:48:39;11.40;99.90
30069;DHT22;16894;49.456;10.644;2022-07-17T05:51:05;11.40;99.90
30069;DHT22;16894;49.456;10.644;2022-07-17T05:53:30;11.60;99.90
30069;DHT22;16894;49.456;10.644;2022-07-17T05:55:56;11.70;99.90
30069;DHT22;16894;49.456;10.644;2022-07-17T05:58:22;11.70;99.90
30069;DHT22;16894;49.456;10.644;2022-07-17T06:00:48;11.70;99.90
30069;DHT22;16894;49.456;10.644;2022-07-17T06:03:17;11.70;99.90
30069;DHT22;16894;49.456;10.644;2022-07-17T06:05:43;11.80;99.90
30069;DHT22;16894;49.456;10.644;2022-07-17T06:08:09;11.90;99.90
30069;DHT22;16894;49.456;10.644;2022-07-17T06:10:35;12.10;99.90
30069;DHT22;16894;49.456;10.644;2022-07-17T06:13:01;12.40;99.90
30069;DHT22;16894;49.456;10.644;2022-07-17T06:15:26;12.50;99.90
30069;DHT22;16894;49.456;10.644;2022-07-17T06:17:52;12.60;99.90
30069;DHT22;16894;49.456;10.644;2022-07-17T06:20:18;12.90;99.90
30069;DHT22;16894;49.456;10.644;2022-07-17T06:22:45;13.10;99.90
30069;DHT22;16894;49.456;10.644;2022-07-17T06:25:11;13.20;99.90
30069;DHT22;16894;49.456;10.644;2022-07-17T06:27:43;13.40;99.90
30069;DHT22;16894;49.456;10.644;2022-07-17T06:30:10;13.70;99.90
30069;DHT22;16894;49.456;10.644;2022-07-17T06:32:36;14.00;99.90
30069;DHT22;16894;49.456;10.644;2022-07-17T06:35:02;14.20;99.90
30069;DHT22;16894;49.456;10.644;2022-07-17T06:37:27;14.50;99.90
30069;DHT22;16894;49.456;10.644;2022-07-17T06:39:53;14.70;99.30
30069;DHT22;16894;49.456;10.644;2022-07-17T06:42:19;14.90;99.90
30069;DHT22;16894;49.456;10.644;2022-07-17T06:44:44;15.10;98.60
30069;DHT22;16894;49.456;10.644;2022-07-17T06:47:10;15.30;97.50
30069;DHT22;16894;49.456;10.644;2022-07-17T06:49:36;15.40;98.00
30069;DHT22;16894;49.456;10.644;2022-07-17T06:52:02;15.60;97.10
30069;DHT22;16894;49.456;10.644;2022-07-17T06:54:27;15.90;96.60
30069;DHT22;16894;49.456;10.644;2022-07-17T06:56:53;16.00;95.40
30069;DHT22;16894;49.456;10.644;2022-07-17T06:59:19;16.20;94.30
30069;DHT22;16894;49.456;10.644;2022-07-17T07:01:45;16.30;93.80
30069;DHT22;16894;49.456;10.644;2022-07-17T07:04:11;16.40;93.40
30069;DHT22;16894;49.456;10.644;2022-07-17T07:06:37;16.50;92.60
30069;DHT22;16894;49.456;10.644;2022-07-17T07:09:03;16.60;93.00
30069;DHT22;16894;49.456;10.644;2022-07-17T07:11:28;16.80;91.90
30069;DHT22;16894;49.456;10.644;2022-07-17T07:13:54;17.00;91.30
30069;DHT22;16894;49.456;10.644;2022-07-17T07:16:20;17.10;91.40
30069;DHT22;16894;49.456;10.644;2022-07-17T07:18:46;17.20;90.50
30069;DHT22;16894;49.456;10.644;2022-07-17T07:21:11;17.30;90.10
30069;DHT22;16894;49.456;10.644;2022-07-17T07:23:37;17.40;89.30
30069;DHT22;16894;49.456;10.644;2022-07-17T07:26:03;17.50;89.20
30069;DHT22;16894;49.456;10.644;2022-07-17T07:28:28;17.60;88.50
30069;DHT22;16894;49.456;10.644;2022-07-17T07:30:54;17.70;90.50
30069;DHT22;16894;49.456;10.644;2022-07-17T07:33:20;17.80;88.40
30069;DHT22;16894;49.456;10.644;2022-07-17T07:35:45;17.90;87.60
30069;DHT22;16894;49.456;10.644;2022-07-17T07:38:11;18.00;86.10
30069;DHT22;16894;49.456;10.644;2022-07-17T07:40:37;18.20;87.20
30069;DHT22;16894;49.456;10.644;2022-07-17T07:43:03;18.30;85.20
30069;DHT22;16894;49.456;10.644;2022-07-17T07:45:29;18.40;84.80
30069;DHT22;16894;49.456;10.644;2022-07-17T07:47:54;18.60;83.20
30069;DHT22;16894;49.456;10.644;2022-07-17T07:50:23;18.80;83.20
30069;DHT22;16894;49.456;10.644;2022-07-17T07:52:49;19.00;83.60
30069;DHT22;16894;49.456;10.644;2022-07-17T07:55:15;19.10;82.70
30069;DHT22;16894;49.456;10.644;2022-07-17T07:57:41;19.30;81.20
30069;DHT22;16894;49.456;10.644;2022-07-17T08:00:09;19.50;79.90
30069;DHT22;16894;49.456;10.644;2022-07-17T08:02:35;19.40;79.60
30069;DHT22;16894;49.456;10.644;2022-07-17T08:05:00;19.60;79.00
30069;DHT22;16894;49.456;10.644;2022-07-17T08:07:28;19.80;79.20
30069;DHT22;16894;49.456;10.644;2022-07-17T08:09:54;20.00;77.30
30069;DHT22;16894;49.456;10.644;2022-07-17T08:12:20;20.10;77.10
30069;DHT22;16894;49.456;10.644;2022-07-17T08:14:45;20.30;75.80
30069;DHT22;16894;49.456;10.644;2022-07-17T08:17:11;20.70;75.30
30069;DHT22;16894;49.456;10.644;2022-07-17T08:19:37;20.90;73.70
30069;DHT22;16894;49.456;10.644;2022-07-17T08:22:02;21.60;72.10
30069;DHT22;16894;49.456;10.644;2022-07-17T08:24:28;23.00;69.70
30069;DHT22;16894;49.456;10.644;2022-07-17T08:26:54;23.70;66.10
30069;DHT22;16894;49.456;10.644;2022-07-17T08:29:19;24.90;61.50
30069;DHT22;16894;49.456;10.644;2022-07-17T08:31:45;25.40;60.00
30069;DHT22;16894;49.456;10.644;2022-07-17T08:34:10;26.10;56.40
30069;DHT22;16894;49.456;10.644;2022-07-17T08:36:36;27.10;56.80
30069;DHT22;16894;49.456;10.644;2022-07-17T08:39:02;27.50;54.20
30069;DHT22;16894;49.456;10.644;2022-07-17T08:41:29;28.70;52.10
30069;DHT22;16894;49.456;10.644;2022-07-17T08:43:55;29.60;52.00
30069;DHT22;16894;49.456;10.644;2022-07-17T08:46:23;30.20;48.70
30069;DHT22;16894;49.456;10.644;2022-07-17T08:48:49;30.70;48.10
30069;DHT22;16894;49.456;10.644;2022-07-17T08:51:17;31.20;45.40
30069;DHT22;16894;49.456;10.644;2022-07-17T08:53:43;31.20;46.10
30069;DHT22;16894;49.456;10.644;2022-07-17T08:56:09;31.60;45.50
30069;DHT22;16894;49.456;10.644;2022-07-17T08:58:35;31.80;44.40
30069;DHT22;16894;49.456;10.644;2022-07-17T09:01:01;32.90;42.80
30069;DHT22;16894;49.456;10.644;2022-07-17T09:03:27;32.90;43.40
30069;DHT22;16894;49.456;10.644;2022-07-17T09:05:52;33.50;41.70
30069;DHT22;16894;49.456;10.644;2022-07-17T09:08:23;34.00;41.40
30069;DHT22;16894;49.456;10.644;2022-07-17T09:10:52;34.10;40.80
30069;DHT22;16894;49.456;10.644;2022-07-17T09:13:21;34.60;40.10
30069;DHT22;16894;49.456;10.644;2022-07-17T09:15:49;34.30;40.40
30069;DHT22;16894;49.456;10.644;2022-07-17T09:18:16;34.40;39.50
30069;DHT22;16894;49.456;10.644;2022-07-17T09:20:49;34.50;40.10
30069;DHT22;16894;49.456;10.644;2022-07-17T09:23:17;34.70;40.00
30069;DHT22;16894;49.456;10.644;2022-07-17T09:25:45;35.50;40.40
30069;DHT22;16894;49.456;10.644;2022-07-17T09:28:13;35.70;38.70
30069;DHT22;16894;49.456;10.644;2022-07-17T09:30:45;35.60;38.50
30069;DHT22;16894;49.456;10.644;2022-07-17T09:33:20;35.90;40.30
30069;DHT22;16894;49.456;10.644;2022-07-17T09:35:54;35.30;37.90
30069;DHT22;16894;49.456;10.644;2022-07-17T09:38:32;34.10;39.30
30069;DHT22;16894;49.456;10.644;2022-07-17T09:43:56;34.40;37.90
30069;DHT22;16894;49.456;10.644;2022-07-17T09:46:27;33.90;38.00
30069;DHT22;16894;49.456;10.644;2022-07-17T09:48:56;33.80;38.70
30069;DHT22;16894;49.456;10.644;2022-07-17T09:51:28;34.60;40.10
30069;DHT22;16894;49.456;10.644;2022-07-17T09:53:57;35.20;38.00
30069;DHT22;16894;49.456;10.644;2022-07-17T09:56:26;36.50;36.50
30069;DHT22;16894;49.456;10.644;2022-07-17T09:58:55;35.90;37.50
30069;DHT22;16894;49.456;10.644;2022-07-17T10:01:22;36.00;37.00
30069;DHT22;16894;49.456;10.644;2022-07-17T10:03:49;36.10;37.10
30069;DHT22;16894;49.456;10.644;2022-07-17T10:06:16;36.60;36.50
30069;DHT22;16894;49.456;10.644;2022-07-17T10:08:41;36.20;37.10
30069;DHT22;16894;49.456;10.644;2022-07-17T10:11:08;35.60;36.10
30069;DHT22;16894;49.456;10.644;2022-07-17T10:13:40;35.60;37.30
30069;DHT22;16894;49.456;10.644;2022-07-17T10:16:07;35.50;35.70
30069;DHT22;16894;49.456;10.644;2022-07-17T10:18:44;35.40;35.90
30069;DHT22;16894;49.456;10.644;2022-07-17T10:23:37;33.70;36.40
30069;DHT22;16894;49.456;10.644;2022-07-17T10:26:03;33.40;37.20
30069;DHT22;16894;49.456;10.644;2022-07-17T10:28:46;33.30;36.40
30069;DHT22;16894;49.456;10.644;2022-07-17T10:31:25;33.30;38.00
30069;DHT22;16894;49.456;10.644;2022-07-17T10:34:02;33.30;36.00
30069;DHT22;16894;49.456;10.644;2022-07-17T10:36:41;34.30;38.40
30069;DHT22;16894;49.456;10.644;2022-07-17T10:39:20;35.00;36.40
30069;DHT22;16894;49.456;10.644;2022-07-17T10:42:00;35.00;36.20
30069;DHT22;16894;49.456;10.644;2022-07-17T10:44:28;35.80;35.70
30069;DHT22;16894;49.456;10.644;2022-07-17T10:46:55;37.00;40.10
30069;DHT22;16894;49.456;10.644;2022-07-17T10:49:20;37.10;34.70
30069;DHT22;16894;49.456;10.644;2022-07-17T10:51:46;37.60;34.80
30069;DHT22;16894;49.456;10.644;2022-07-17T10:54:12;37.00;33.60
30069;DHT22;16894;49.456;10.644;2022-07-17T10:56:41;36.40;33.80
30069;DHT22;16894;49.456;10.644;2022-07-17T10:59:07;34.80;34.20
30069;DHT22;16894;49.456;10.644;2022-07-17T11:01:32;33.40;35.00
30069;DHT22;16894;49.456;10.644;2022-07-17T11:04:00;34.50;37.30
30069;DHT22;16894;49.456;10.644;2022-07-17T11:06:32;35.70;34.90
30069;DHT22;16894;49.456;10.644;2022-07-17T11:08:58;36.90;35.40
30069;DHT22;16894;49.456;10.644;2022-07-17T11:11:49;37.20;35.80
30069;DHT22;16894;49.456;10.644;2022-07-17T11:14:23;38.40;34.50
30069;DHT22;16894;49.456;10.644;2022-07-17T11:16:55;38.40;32.50
30069;DHT22;16894;49.456;10.644;2022-07-17T11:19:29;38.80;32.40
30069;DHT22;16894;49.456;10.644;2022-07-17T11:21:58;39.10;32.90
30069;DHT22;16894;49.456;10.644;2022-07-17T11:24:24;39.70;33.00
30069;DHT22;16894;49.456;10.644;2022-07-17T11:26:52;39.60;33.70
30069;DHT22;16894;49.456;10.644;2022-07-17T11:29:18;39.30;31.60
30069;DHT22;16894;49.456;10.644;2022-07-17T11:31:44;39.70;32.20
30069;DHT22;16894;49.456;10.644;2022-07-17T11:34:11;39.30;31.80
30069;DHT22;16894;49.456;10.644;2022-07-17T11:36:43;39.70;32.70
30069;DHT22;16894;49.456;10.644;2022-07-17T11:39:16;39.50;31.80
30069;DHT22;16894;49.456;10.644;2022-07-17T11:41:48;40.20;33.20
30069;DHT22;16894;49.456;10.644;2022-07-17T11:44:18;40.80;31.60
30069;DHT22;16894;49.456;10.644;2022-07-17T11:46:47;40.40;30.30
30069;DHT22;16894;49.456;10.644;2022-07-17T11:49:35;40.00;31.40
30069;DHT22;16894;49.456;10.644;2022-07-17T11:52:08;39.80;31.50
30069;DHT22;16894;49.456;10.644;2022-07-17T11:54:45;40.10;32.10
30069;DHT22;16894;49.456;10.644;2022-07-17T11:57:11;40.50;31.10
30069;DHT22;16894;49.456;10.644;2022-07-17T11:59:37;41.30;31.30
30069;DHT22;16894;49.456;10.644;2022-07-17T12:02:15;41.90;31.30
30069;DHT22;16894;49.456;10.644;2022-07-17T12:04:52;41.80;31.10
30069;DHT22;16894;49.456;10.644;2022-07-17T12:07:19;41.90;30.30
30069;DHT22;16894;49.456;10.644;2022-07-17T12:09:45;41.10;31.20
30069;DHT22;16894;49.456;10.644;2022-07-17T12:12:25;41.50;30.90
30069;DHT22;16894;49.456;10.644;2022-07-17T12:14:55;42.30;31.10
30069;DHT22;16894;49.456;10.644;2022-07-17T12:17:21;42.50;30.90
30069;DHT22;16894;49.456;10.644;2022-07-17T12:19:47;43.30;30.00
30069;DHT22;16894;49.456;10.644;2022-07-17T12:22:13;43.10;29.50
30069;DHT22;16894;49.456;10.644;2022-07-17T12:24:41;42.30;30.00
30069;DHT22;16894;49.456;10.644;2022-07-17T12:27:10;42.80;29.40
30069;DHT22;16894;49.456;10.644;2022-07-17T12:29:36;42.20;29.30
30069;DHT22;16894;49.456;10.644;2022-07-17T12:34:32;41.80;29.30
30069;DHT22;16894;49.456;10.644;2022-07-17T12:36:58;41.60;29.40
30069;DHT22;16894;49.456;10.644;2022-07-17T12:39:24;41.50;29.90
30069;DHT22;16894;49.456;10.644;2022-07-17T12:41:49;41.20;29.60
30069;DHT22;16894;49.456;10.644;2022-07-17T12:44:15;41.00;29.40
30069;DHT22;16894;49.456;10.644;2022-07-17T12:46:41;41.10;29.40
30069;DHT22;16894;49.456;10.644;2022-07-17T12:49:06;41.00;29.90
30069;DHT22;16894;49.456;10.644;2022-07-17T12:51:32;40.90;30.00
30069;DHT22;16894;49.456;10.644;2022-07-17T12:53:58;41.20;28.80
30069;DHT22;16894;49.456;10.644;2022-07-17T12:56:24;41.10;29.30
30069;DHT22;16894;49.456;10.644;2022-07-17T12:58:49;40.40;29.10
30069;DHT22;16894;49.456;10.644;2022-07-17T13:01:18;40.10;29.30
30069;DHT22;16894;49.456;10.644;2022-07-17T13:03:44;40.20;29.60
30069;DHT22;16894;49.456;10.644;2022-07-17T13:06:10;40.80;29.70
30069;DHT22;16894;49.456;10.644;2022-07-17T13:08:35;41.00;29.10
30069;DHT22;16894;49.456;10.644;2022-07-17T13:11:02;40.70;29.60
30069;DHT22;16894;49.456;10.644;2022-07-17T13:13:28;41.20;29.50
30069;DHT22;16894;49.456;10.644;2022-07-17T13:15:55;41.20;29.40
30069;DHT22;16894;49.456;10.644;2022-07-17T13:18:21;41.80;29.10
30069;DHT22;16894;49.456;10.644;2022-07-17T13:20:47;41.70;28.30
30069;DHT22;16894;49.456;10.644;2022-07-17T13:23:13;41.90;28.80
30069;DHT22;16894;49.456;10.644;2022-07-17T13:25:39;42.10;29.30
30069;DHT22;16894;49.456;10.644;2022-07-17T13:28:05;43.00;29.00
30069;DHT22;16894;49.456;10.644;2022-07-17T13:30:32;43.00;29.10
30069;DHT22;16894;49.456;10.644;2022-07-17T13:32:59;42.40;28.10
30069;DHT22;16894;49.456;10.644;2022-07-17T13:35:25;42.10;28.80
30069;DHT22;16894;49.456;10.644;2022-07-17T13:37:51;42.20;28.70
30069;DHT22;16894;49.456;10.644;2022-07-17T13:40:16;42.20;28.50
30069;DHT22;16894;49.456;10.644;2022-07-17T13:42:44;42.50;28.20
30069;DHT22;16894;49.456;10.644;2022-07-17T13:45:10;41.50;28.40
30069;DHT22;16894;49.456;10.644;2022-07-17T13:47:36;40.60;28.80
30069;DHT22;16894;49.456;10.644;2022-07-17T13:50:03;39.40;28.40
30069;DHT22;16894;49.456;10.644;2022-07-17T13:52:29;39.30;28.60
30069;DHT22;16894;49.456;10.644;2022-07-17T13:54:55;39.70;29.20
30069;DHT22;16894;49.456;10.644;2022-07-17T13:57:21;39.00;29.10
30069;DHT22;16894;49.456;10.644;2022-07-17T13:59:46;38.50;28.90
30069;DHT22;16894;49.456;10.644;2022-07-17T14:02:12;39.00;29.50
30069;DHT22;16894;49.456;10.644;2022-07-17T14:04:37;40.10;29.10
30069;DHT22;16894;49.456;10.644;2022-07-17T14:07:03;41.30;29.10
30069;DHT22;16894;49.456;10.644;2022-07-17T14:09:29;42.30;29.20
30069;DHT22;16894;49.456;10.644;2022-07-17T14:11:55;42.50;28.60
30069;DHT22;16894;49.456;10.644;2022-07-17T14:14:20;42.50;27.70
30069;DHT22;16894;49.456;10.644;2022-07-17T14:16:46;41.00;27.40
30069;DHT22;16894;49.456;10.644;2022-07-17T14:19:12;38.90;28.20
30069;DHT22;16894;49.456;10.644;2022-07-17T14:21:38;38.60;29.70
30069;DHT22;16894;49.456;10.644;2022-07-17T14:24:04;39.50;29.30
30069;DHT22;16894;49.456;10.644;2022-07-17T14:26:30;40.30;29.00
30069;DHT22;16894;49.456;10.644;2022-07-17T14:28:57;41.40;28.50
30069;DHT22;16894;49.456;10.644;2022-07-17T14:31:22;41.70;28.70
30069;DHT22;16894;49.456;10.644;2022-07-17T14:33:48;41.10;28.30
30069;DHT22;16894;49.456;10.644;2022-07-17T14:36:14;41.50;28.60
30069;DHT22;16894;49.456;10.644;2022-07-17T14:38:40;41.70;28.10
30069;DHT22;16894;49.456;10.644;2022-07-17T14:41:06;41.40;28.10
30069;DHT22;16894;49.456;10.644;2022-07-17T14:43:32;39.30;28.20
30069;DHT22;16894;49.456;10.644;2022-07-17T14:45:57;38.30;28.90
30069;DHT22;16894;49.456;10.644;2022-07-17T14:48:23;38.30;29.50
30069;DHT22;16894;49.456;10.644;2022-07-17T14:50:49;38.40;29.10
30069;DHT22;16894;49.456;10.644;2022-07-17T14:53:15;39.60;28.50
30069;DHT22;16894;49.456;10.644;2022-07-17T14:55:40;39.60;29.00
30069;DHT22;16894;49.456;10.644;2022-07-17T14:58:06;40.40;29.00
30069;DHT22;16894;49.456;10.644;2022-07-17T15:00:32;41.10;28.70
30069;DHT22;16894;49.456;10.644;2022-07-17T15:02:57;41.10;28.20
30069;DHT22;16894;49.456;10.644;2022-07-17T15:05:23;41.20;28.20
30069;DHT22;16894;49.456;10.644;2022-07-17T15:07:49;40.50;28.60
30069;DHT22;16894;49.456;10.644;2022-07-17T15:10:14;40.30;28.50
30069;DHT22;16894;49.456;10.644;2022-07-17T15:12:40;39.70;28.30
30069;DHT22;16894;49.456;10.644;2022-07-17T15:15:06;39.60;28.50
30069;DHT22;16894;49.456;10.644;2022-07-17T15:17:32;39.60;28.70
30069;DHT22;16894;49.456;10.644;2022-07-17T15:19:57;38.80;28.40
30069;DHT22;16894;49.456;10.644;2022-07-17T15:22:23;38.40;28.40